createdAt,value
2023-02-09T00:01:30.945Z,45.40
2023-02-09T00:03:59.134Z,45.38
2023-02-09T00:06:27.200Z,43.78
2023-02-09T00:08:54.294Z,34.75
2023-02-09T00:11:43.158Z,38.20
2023-02-09T00:14:13.984Z,42.00
2023-02-09T00:16:44.760Z,38.38
2023-02-09T00:19:12.824Z,35.40
2023-02-09T00:21:40.483Z,34.13
2023-02-09T00:24:10.729Z,37.07
2023-02-09T00:26:38.098Z,41.08
2023-02-09T00:29:05.837Z,38.90
2023-02-09T00:31:33.475Z,45.45
2023-02-09T00:34:01.000Z,38.97
2023-02-09T00:36:28.238Z,41.97
2023-02-09T00:38:55.284Z,49.40
2023-02-09T00:41:42.272Z,46.47
2023-02-09T00:44:11.070Z,37.08
2023-02-09T00:46:38.102Z,37.87
2023-02-09T00:49:05.592Z,37.83
2023-02-09T00:51:32.860Z,38.05
2023-02-09T00:53:59.826Z,38.90
2023-02-09T00:56:26.773Z,38.83
2023-02-09T00:58:53.898Z,42.03
2023-02-09T01:01:20.868Z,39.45
2023-02-09T01:03:47.933Z,38.75
2023-02-09T01:06:15.057Z,40.60
2023-02-09T01:08:42.040Z,32.70
2023-02-09T01:11:14.666Z,44.00
2023-02-09T01:13:43.268Z,40.12
2023-02-09T01:16:13.882Z,37.17
2023-02-09T01:18:42.279Z,43.03
2023-02-09T01:21:14.854Z,43.80
2023-02-09T01:23:42.374Z,45.03
2023-02-09T01:26:12.132Z,42.62
2023-02-09T01:28:39.917Z,41.30
2023-02-09T01:31:17.559Z,43.87
2023-02-09T01:33:44.592Z,45.70
2023-02-09T01:36:11.504Z,38.28
2023-02-09T01:38:38.450Z,42.10
2023-02-09T01:41:05.641Z,40.20
2023-02-09T01:43:55.848Z,42.57
2023-02-09T01:46:25.480Z,47.50
2023-02-09T01:48:59.175Z,45.50
2023-02-09T01:51:27.273Z,46.88
2023-02-09T01:53:54.522Z,45.57
2023-02-09T01:56:28.485Z,36.25
2023-02-09T01:58:56.018Z,40.05
2023-02-09T02:01:23.777Z,35.53
2023-02-09T02:03:51.909Z,34.95
2023-02-09T02:06:19.786Z,38.43
2023-02-09T02:08:53.658Z,37.63
2023-02-09T02:11:22.331Z,42.08
2023-02-09T02:13:49.921Z,42.78
2023-02-09T02:16:42.169Z,39.07
2023-02-09T02:19:21.094Z,34.78
2023-02-09T02:22:16.193Z,46.30
2023-02-09T02:24:52.029Z,41.15
2023-02-09T02:27:33.975Z,36.20
2023-02-09T02:30:17.734Z,35.92
2023-02-09T02:32:51.123Z,37.53
2023-02-09T02:35:17.985Z,40.95
2023-02-09T02:37:48.081Z,39.95
2023-02-09T02:40:30.413Z,40.22
2023-02-09T02:43:22.183Z,48.17
2023-02-09T02:46:11.152Z,47.90
2023-02-09T02:48:44.244Z,40.00
2023-02-09T02:51:28.518Z,32.85
2023-02-09T02:54:01.994Z,31.45
2023-02-09T02:56:40.023Z,38.08
2023-02-09T02:59:12.719Z,40.45
2023-02-09T03:02:11.726Z,41.20
2023-02-09T03:04:40.707Z,37.85
2023-02-09T03:07:08.504Z,40.55
2023-02-09T03:09:35.648Z,38.80
2023-02-09T03:12:16.476Z,32.65
2023-02-09T03:14:59.493Z,35.72
2023-02-09T03:17:59.024Z,34.25
2023-02-09T03:20:28.205Z,34.13
2023-02-09T03:23:00.086Z,40.25
2023-02-09T03:25:32.020Z,37.15
2023-02-09T03:28:14.688Z,31.73
2023-02-09T03:30:44.961Z,34.75
2023-02-09T03:33:21.115Z,35.30
2023-02-09T03:35:54.925Z,40.20
2023-02-09T03:38:21.870Z,39.47
2023-02-09T03:40:48.813Z,42.73
2023-02-09T03:43:16.004Z,46.50
2023-02-09T03:45:42.912Z,39.38
2023-02-09T03:48:09.909Z,36.92
2023-02-09T03:50:37.971Z,45.90
2023-02-09T03:53:08.190Z,40.92
2023-02-09T03:55:35.870Z,39.25
2023-02-09T03:58:02.874Z,34.00
2023-02-09T04:00:31.602Z,39.72
2023-02-09T04:02:59.854Z,36.67
2023-02-09T04:05:26.869Z,39.55
2023-02-09T04:07:53.856Z,34.13
2023-02-09T04:10:22.963Z,33.23
2023-02-09T04:12:53.162Z,35.55
2023-02-09T04:15:20.128Z,36.92
2023-02-09T04:17:47.909Z,38.80
2023-02-09T04:20:17.630Z,31.87
2023-02-09T04:22:45.780Z,33.15
2023-02-09T04:25:12.671Z,46.03
2023-02-09T04:27:39.708Z,37.55
2023-02-09T04:30:11.059Z,34.67
2023-02-09T04:32:39.131Z,33.57
2023-02-09T04:35:06.547Z,35.53
2023-02-09T04:37:33.452Z,40.20
2023-02-09T04:40:00.875Z,41.90
2023-02-09T04:42:27.857Z,39.30
2023-02-09T04:44:54.743Z,41.65
2023-02-09T04:47:21.594Z,40.15
2023-02-09T04:49:48.622Z,33.93
2023-02-09T04:52:16.420Z,35.63
2023-02-09T04:54:43.285Z,29.90
2023-02-09T04:57:28.702Z,31.40
2023-02-09T04:59:55.757Z,33.65
2023-02-09T05:02:22.741Z,42.78
2023-02-09T05:04:49.889Z,39.55
2023-02-09T05:07:16.745Z,37.42
2023-02-09T05:09:44.640Z,37.80
2023-02-09T05:12:11.935Z,33.67
2023-02-09T05:14:38.996Z,38.17
2023-02-09T05:17:05.876Z,35.13
2023-02-09T05:19:32.860Z,41.57
2023-02-09T05:21:59.830Z,33.65
2023-02-09T05:24:26.788Z,37.78
2023-02-09T05:26:53.669Z,34.22
2023-02-09T05:29:22.224Z,38.27
2023-02-09T05:31:49.261Z,29.17
2023-02-09T05:34:16.263Z,35.28
2023-02-09T05:36:43.299Z,32.92
2023-02-09T05:39:10.260Z,35.27
2023-02-09T05:41:55.928Z,27.30
2023-02-09T05:44:22.997Z,27.67
2023-02-09T05:46:49.950Z,31.35
2023-02-09T05:49:16.870Z,23.83
2023-02-09T05:51:43.796Z,28.15
2023-02-09T05:54:10.843Z,32.13
2023-02-09T05:56:38.167Z,35.08
2023-02-09T05:59:05.253Z,35.50
2023-02-09T06:01:32.675Z,33.38
2023-02-09T06:03:59.522Z,28.70
2023-02-09T06:06:26.356Z,27.75
2023-02-09T06:08:53.298Z,25.43
2023-02-09T06:11:20.676Z,25.17
2023-02-09T06:13:47.653Z,26.60
2023-02-09T06:16:14.529Z,43.80
2023-02-09T06:18:41.446Z,32.13
2023-02-09T06:21:08.491Z,32.17
2023-02-09T06:23:35.516Z,33.20
2023-02-09T06:26:06.810Z,30.15
2023-02-09T06:28:33.839Z,29.85
2023-02-09T06:31:01.203Z,38.53
2023-02-09T06:33:28.544Z,46.58
2023-02-09T06:35:55.489Z,45.33
2023-02-09T06:38:22.504Z,38.23
2023-02-09T06:40:50.084Z,34.38
2023-02-09T06:43:17.669Z,39.35
2023-02-09T06:45:44.631Z,48.78
2023-02-09T06:48:11.517Z,32.07
2023-02-09T06:50:39.168Z,50.38
2023-02-09T06:53:06.923Z,49.25
2023-02-09T06:55:34.491Z,50.63
2023-02-09T06:58:02.357Z,39.10
2023-02-09T07:00:31.722Z,40.92
2023-02-09T07:02:59.626Z,36.22
2023-02-09T07:05:27.044Z,34.13
2023-02-09T07:07:56.476Z,48.13
2023-02-09T07:10:23.529Z,48.67
2023-02-09T07:12:50.672Z,38.03
2023-02-09T07:15:17.837Z,44.92
2023-02-09T07:17:45.079Z,33.97
2023-02-09T07:20:12.517Z,40.63
2023-02-09T07:22:40.997Z,47.62
2023-02-09T07:25:08.305Z,46.58
2023-02-09T07:27:35.387Z,38.17
2023-02-09T07:30:02.746Z,39.43
2023-02-09T07:32:34.088Z,40.55
2023-02-09T07:35:01.167Z,28.95
2023-02-09T07:37:28.081Z,26.98
2023-02-09T07:39:56.649Z,31.40
2023-02-09T07:42:24.869Z,25.30
2023-02-09T07:44:51.775Z,29.80
2023-02-09T07:47:18.749Z,28.38
2023-02-09T07:49:46.004Z,28.52
2023-02-09T07:52:12.900Z,34.92
2023-02-09T07:54:39.799Z,28.53
2023-02-09T07:57:06.682Z,28.48
2023-02-09T07:59:34.197Z,28.42
2023-02-09T08:02:01.293Z,25.62
2023-02-09T08:04:28.161Z,25.42
2023-02-09T08:06:55.286Z,25.07
2023-02-09T08:09:22.305Z,25.40
2023-02-09T08:12:08.277Z,22.58
2023-02-09T08:14:42.960Z,23.27
2023-02-09T08:17:20.456Z,21.25
2023-02-09T08:19:56.569Z,22.97
2023-02-09T08:22:25.090Z,23.38
2023-02-09T08:24:52.631Z,26.55
2023-02-09T08:27:19.700Z,24.67
2023-02-09T08:30:07.239Z,32.30
2023-02-09T08:32:54.082Z,29.07
2023-02-09T08:35:21.062Z,29.60
2023-02-09T08:37:48.092Z,32.92
2023-02-09T08:40:15.245Z,31.33
2023-02-09T08:42:42.150Z,34.42
2023-02-09T08:45:09.876Z,29.53
2023-02-09T08:47:36.840Z,37.20
2023-02-09T08:50:03.900Z,38.15
2023-02-09T08:52:31.286Z,33.05
2023-02-09T08:54:58.141Z,27.10
2023-02-09T08:57:38.193Z,31.17
2023-02-09T09:00:10.570Z,25.80
2023-02-09T09:02:37.562Z,25.95
2023-02-09T09:05:04.695Z,21.50
2023-02-09T09:07:31.598Z,18.10
2023-02-09T09:09:58.718Z,22.57
2023-02-09T09:12:25.697Z,23.70
2023-02-09T09:14:52.657Z,20.15
2023-02-09T09:17:19.585Z,16.90
2023-02-09T09:19:46.637Z,16.80
2023-02-09T09:22:13.532Z,15.40
2023-02-09T09:24:43.216Z,14.43
2023-02-09T09:27:10.816Z,15.93
2023-02-09T09:29:40.092Z,17.65
2023-02-09T09:32:08.222Z,15.73
2023-02-09T09:34:35.142Z,14.30
2023-02-09T09:37:01.982Z,14.60
2023-02-09T09:39:28.904Z,13.85
2023-02-09T09:41:59.816Z,16.05
2023-02-09T09:44:34.884Z,16.12
2023-02-09T09:47:08.762Z,15.97
2023-02-09T09:49:37.291Z,14.48
2023-02-09T09:52:15.769Z,18.48
2023-02-09T09:54:44.071Z,16.75
2023-02-09T09:57:24.472Z,20.17
2023-02-09T09:59:53.053Z,18.40
2023-02-09T10:02:30.267Z,16.10
2023-02-09T10:05:10.436Z,14.40
2023-02-09T10:07:38.859Z,18.15
2023-02-09T10:10:21.279Z,13.27
2023-02-09T10:12:51.152Z,15.60
2023-02-09T10:15:19.319Z,14.98
2023-02-09T10:17:46.167Z,16.40
2023-02-09T10:20:13.539Z,15.48
2023-02-09T10:22:44.836Z,13.18
2023-02-09T10:25:39.105Z,17.77
2023-02-09T10:28:06.630Z,17.25
2023-02-09T10:30:34.136Z,14.90
2023-02-09T10:33:02.423Z,15.35
2023-02-09T10:35:36.522Z,17.87
2023-02-09T10:38:04.179Z,15.00
2023-02-09T10:40:33.799Z,15.65
2023-02-09T10:43:10.323Z,16.62
2023-02-09T10:45:44.620Z,18.30
2023-02-09T10:48:11.660Z,16.10
2023-02-09T10:50:50.812Z,16.97
2023-02-09T10:53:33.036Z,17.77
2023-02-09T10:56:40.493Z,16.42
2023-02-09T10:59:25.339Z,13.60
2023-02-09T11:02:02.275Z,17.30
2023-02-09T11:04:39.998Z,15.23
2023-02-09T11:07:13.513Z,13.98
2023-02-09T11:09:48.504Z,14.57
2023-02-09T11:12:15.476Z,14.35
2023-02-09T11:14:43.250Z,15.52
2023-02-09T11:17:36.546Z,15.73
2023-02-09T11:20:12.133Z,12.98
2023-02-09T11:23:23.295Z,15.88
2023-02-09T11:25:53.084Z,16.58
2023-02-09T11:28:55.148Z,15.65
2023-02-09T11:32:03.966Z,16.03
2023-02-09T11:34:37.959Z,14.07
2023-02-09T11:37:16.455Z,14.07
2023-02-09T11:39:51.401Z,15.77
2023-02-09T11:42:45.145Z,19.40
2023-02-09T11:45:30.896Z,15.53
2023-02-09T11:47:58.356Z,13.70
2023-02-09T11:50:39.250Z,12.93
2023-02-09T11:53:16.190Z,14.38
2023-02-09T11:55:49.768Z,12.43
2023-02-09T11:58:47.630Z,11.70
2023-02-09T12:01:44.601Z,11.88
2023-02-09T12:04:26.444Z,11.63
2023-02-09T12:07:00.458Z,11.82
2023-02-09T12:09:55.751Z,9.30
2023-02-09T12:12:29.194Z,9.00
2023-02-09T12:15:05.629Z,11.80
2023-02-09T12:17:38.124Z,10.82
2023-02-09T12:20:19.997Z,11.20
2023-02-09T12:22:57.894Z,17.33
2023-02-09T12:26:00.138Z,14.30
2023-02-09T12:28:27.298Z,12.75
2023-02-09T12:30:58.988Z,10.98
2023-02-09T12:33:25.827Z,17.80
2023-02-09T12:36:08.472Z,14.18
2023-02-09T12:38:56.844Z,14.70
2023-02-09T12:41:30.209Z,14.57
2023-02-09T12:44:06.034Z,20.08
2023-02-09T12:46:34.095Z,20.65
2023-02-09T12:49:00.965Z,14.52
2023-02-09T12:51:39.737Z,16.07
2023-02-09T12:54:31.020Z,13.93
2023-02-09T12:57:16.322Z,16.15
2023-02-09T12:59:52.727Z,12.10
2023-02-09T13:02:37.648Z,31.67
2023-02-09T13:05:23.403Z,16.67
2023-02-09T13:08:15.972Z,16.40
2023-02-09T13:11:06.907Z,14.90
2023-02-09T13:13:53.727Z,12.95
2023-02-09T13:16:30.983Z,13.38
2023-02-09T13:19:39.189Z,13.30
2023-02-09T13:22:29.105Z,13.20
2023-02-09T13:25:00.849Z,12.35
2023-02-09T13:27:29.723Z,16.75
2023-02-09T13:29:58.681Z,14.13
2023-02-09T13:32:47.875Z,14.43
2023-02-09T13:35:29.387Z,11.55
2023-02-09T13:37:58.947Z,12.60
2023-02-09T13:40:31.530Z,13.80
2023-02-09T13:43:17.312Z,14.07
2023-02-09T13:46:02.876Z,12.97
2023-02-09T13:48:39.424Z,14.23
2023-02-09T13:51:20.624Z,12.82
2023-02-09T13:54:02.424Z,14.65
2023-02-09T13:56:31.962Z,13.88
2023-02-09T13:59:00.448Z,14.03
2023-02-09T14:01:33.811Z,11.70
2023-02-09T14:04:15.255Z,11.80
2023-02-09T14:07:05.678Z,19.20
2023-02-09T14:09:44.668Z,14.45
2023-02-09T14:12:55.551Z,21.90
2023-02-09T14:15:53.095Z,12.57
2023-02-09T14:18:44.261Z,14.15
2023-02-09T14:21:11.433Z,14.32
2023-02-09T14:23:39.636Z,11.30
2023-02-09T14:26:27.597Z,15.63
2023-02-09T14:29:04.309Z,32.20
2023-02-09T14:31:34.626Z,10.65
2023-02-09T14:34:02.261Z,25.37
2023-02-09T14:36:36.246Z,16.00
2023-02-09T14:39:13.122Z,13.33
2023-02-09T14:41:40.217Z,14.13
2023-02-09T14:44:07.010Z,9.15
2023-02-09T14:46:48.551Z,14.80
2023-02-09T14:49:16.325Z,13.27
2023-02-09T14:51:44.945Z,14.10
2023-02-09T14:54:28.122Z,8.35
2023-02-09T14:56:58.705Z,15.80
2023-02-09T14:59:27.576Z,13.65
2023-02-09T15:01:54.977Z,21.45
2023-02-09T15:04:22.555Z,11.80
2023-02-09T15:07:03.796Z,47.08
2023-02-09T15:09:36.936Z,15.93
2023-02-09T15:12:06.269Z,32.15
2023-02-09T15:14:38.098Z,18.33
2023-02-09T15:17:17.669Z,17.20
2023-02-09T15:19:45.842Z,19.20
2023-02-09T15:22:15.189Z,15.68
2023-02-09T15:24:44.163Z,12.50
2023-02-09T15:27:24.278Z,15.80
2023-02-09T15:29:51.497Z,21.97
2023-02-09T15:32:20.552Z,17.80
2023-02-09T15:34:47.993Z,19.33
2023-02-09T15:37:37.053Z,21.62
2023-02-09T15:40:16.116Z,16.77
2023-02-09T15:43:02.014Z,17.70
2023-02-09T15:45:48.860Z,14.55
2023-02-09T15:48:16.159Z,17.50
2023-02-09T15:50:45.994Z,14.55
2023-02-09T15:53:18.583Z,20.35
2023-02-09T15:55:46.893Z,24.83
2023-02-09T15:58:22.384Z,26.98
2023-02-09T16:00:49.431Z,31.75
2023-02-09T16:03:19.577Z,27.10
2023-02-09T16:05:53.464Z,31.52
2023-02-09T16:08:26.719Z,39.50
2023-02-09T16:10:54.617Z,28.80
2023-02-09T16:13:22.064Z,26.65
2023-02-09T16:15:49.598Z,50.70
2023-02-09T16:18:16.699Z,42.47
2023-02-09T16:20:47.459Z,34.27
2023-02-09T16:23:21.108Z,45.33
2023-02-09T16:25:54.226Z,40.47
2023-02-09T16:28:22.224Z,39.30
2023-02-09T16:30:54.012Z,42.35
2023-02-09T16:33:25.800Z,47.73
2023-02-09T16:36:02.931Z,46.30
2023-02-09T16:38:31.534Z,50.95
2023-02-09T16:40:58.581Z,50.83
2023-02-09T16:43:27.085Z,64.85
2023-02-09T16:46:03.425Z,46.37
2023-02-09T16:48:34.784Z,43.33
2023-02-09T16:51:03.008Z,46.17
2023-02-09T16:53:38.635Z,47.70
2023-02-09T16:56:10.373Z,46.47
2023-02-09T16:58:38.662Z,43.53
2023-02-09T17:01:23.019Z,42.03
2023-02-09T17:03:57.940Z,45.95
2023-02-09T17:06:28.885Z,40.80
2023-02-09T17:08:56.949Z,50.55
2023-02-09T17:11:27.196Z,54.07
2023-02-09T17:13:57.832Z,60.75
2023-02-09T17:16:37.046Z,61.10
2023-02-09T17:19:11.522Z,70.18
2023-02-09T17:21:40.611Z,62.20
2023-02-09T17:24:26.689Z,68.13
2023-02-09T17:26:54.557Z,72.25
2023-02-09T17:29:24.024Z,76.90
2023-02-09T17:31:54.044Z,61.97
2023-02-09T17:34:27.477Z,60.15
2023-02-09T17:36:56.574Z,66.30
2023-02-09T17:39:25.655Z,60.65
2023-02-09T17:41:53.449Z,69.43
2023-02-09T17:44:44.942Z,64.95
2023-02-09T17:47:17.168Z,65.05
2023-02-09T17:49:47.148Z,74.93
2023-02-09T17:52:19.757Z,65.93
2023-02-09T17:54:49.028Z,57.35
2023-02-09T17:57:18.292Z,57.33
2023-02-09T17:59:48.760Z,60.50
2023-02-09T18:02:20.101Z,53.43
2023-02-09T18:04:48.220Z,56.13
2023-02-09T18:07:20.737Z,56.00
2023-02-09T18:09:49.584Z,53.33
2023-02-09T18:12:22.099Z,55.42
2023-02-09T18:14:50.354Z,61.03
2023-02-09T18:17:20.938Z,65.70
2023-02-09T18:19:50.091Z,67.80
2023-02-09T18:22:20.371Z,56.78
2023-02-09T18:24:48.566Z,55.08
2023-02-09T18:27:20.814Z,57.33
2023-02-09T18:29:49.274Z,51.95
2023-02-09T18:32:18.458Z,53.38
2023-02-09T18:34:47.196Z,51.35
2023-02-09T18:37:16.553Z,42.28
2023-02-09T18:39:47.008Z,44.40
2023-02-09T18:42:16.811Z,48.22
2023-02-09T18:44:47.341Z,52.03
2023-02-09T18:47:16.896Z,48.72
2023-02-09T18:49:45.909Z,50.10
2023-02-09T18:52:19.377Z,47.57
2023-02-09T18:54:48.789Z,48.17
2023-02-09T18:57:19.661Z,48.05
2023-02-09T18:59:48.005Z,49.15
2023-02-09T19:02:16.526Z,44.50
2023-02-09T19:04:45.172Z,48.60
2023-02-09T19:07:15.177Z,47.97
2023-02-09T19:09:46.930Z,47.83
2023-02-09T19:12:15.369Z,45.53
2023-02-09T19:14:48.066Z,46.67
2023-02-09T19:17:18.644Z,52.07
2023-02-09T19:19:47.764Z,47.15
2023-02-09T19:22:21.629Z,56.60
2023-02-09T19:24:53.256Z,51.78
2023-02-09T19:27:24.462Z,55.00
2023-02-09T19:29:57.783Z,54.80
2023-02-09T19:32:27.825Z,53.92
2023-02-09T19:34:57.355Z,48.87
2023-02-09T19:37:25.979Z,56.80
2023-02-09T19:40:11.662Z,52.55
2023-02-09T19:42:39.580Z,54.30
2023-02-09T19:45:11.026Z,51.53
2023-02-09T19:47:39.409Z,59.97
2023-02-09T19:50:08.156Z,65.43
2023-02-09T19:52:38.883Z,69.32
2023-02-09T19:55:07.232Z,68.33
2023-02-09T19:57:36.224Z,71.60
2023-02-09T20:00:07.195Z,65.45
2023-02-09T20:02:35.949Z,64.55
2023-02-09T20:05:06.704Z,57.83
2023-02-09T20:07:34.608Z,50.80
2023-02-09T20:10:05.352Z,55.97
2023-02-09T20:12:34.794Z,55.22
2023-02-09T20:15:03.441Z,58.75
2023-02-09T20:17:31.811Z,70.90
2023-02-09T20:20:08.909Z,62.63
2023-02-09T20:22:38.525Z,54.88
2023-02-09T20:25:07.341Z,63.42
2023-02-09T20:27:35.311Z,61.45
2023-02-09T20:30:05.507Z,73.20
2023-02-09T20:32:38.300Z,69.37
2023-02-09T20:35:07.332Z,68.62
2023-02-09T20:37:35.665Z,67.68
2023-02-09T20:40:06.091Z,61.83
2023-02-09T20:42:53.119Z,63.25
2023-02-09T20:45:39.850Z,66.63
2023-02-09T20:48:08.673Z,63.58
2023-02-09T20:50:37.095Z,63.90
2023-02-09T20:53:05.561Z,56.72
2023-02-09T20:55:37.827Z,56.88
2023-02-09T20:58:06.884Z,61.37
2023-02-09T21:00:35.335Z,65.40
2023-02-09T21:03:04.341Z,58.75
2023-02-09T21:05:33.135Z,56.10
2023-02-09T21:08:04.876Z,59.72
2023-02-09T21:10:35.849Z,61.77
2023-02-09T21:13:07.927Z,59.75
2023-02-09T21:15:41.217Z,58.80
2023-02-09T21:18:09.358Z,69.47
2023-02-09T21:20:40.446Z,56.92
2023-02-09T21:23:08.072Z,63.80
2023-02-09T21:25:39.636Z,69.05
2023-02-09T21:28:07.528Z,82.05
2023-02-09T21:30:34.831Z,68.93
2023-02-09T21:33:02.354Z,64.90
2023-02-09T21:35:29.938Z,62.37
2023-02-09T21:37:57.251Z,62.38
2023-02-09T21:40:24.944Z,59.35
2023-02-09T21:42:52.537Z,65.15
2023-02-09T21:45:20.094Z,59.17
2023-02-09T21:47:47.452Z,54.17
2023-02-09T21:50:14.980Z,60.78
2023-02-09T21:52:42.332Z,61.78
2023-02-09T21:55:09.759Z,61.47
2023-02-09T21:57:38.368Z,66.12
2023-02-09T22:00:09.054Z,54.70
2023-02-09T22:02:36.390Z,65.47
2023-02-09T22:05:07.700Z,68.97
2023-02-09T22:07:36.067Z,73.47
2023-02-09T22:10:05.190Z,72.00
2023-02-09T22:12:34.286Z,70.60
2023-02-09T22:15:01.460Z,77.85
2023-02-09T22:17:28.481Z,73.28
2023-02-09T22:19:57.892Z,78.60
2023-02-09T22:22:24.691Z,74.53
2023-02-09T22:24:53.082Z,61.63
2023-02-09T22:27:22.674Z,61.00
2023-02-09T22:29:49.750Z,57.60
2023-02-09T22:32:16.959Z,55.60
2023-02-09T22:34:43.828Z,48.63
2023-02-09T22:37:10.687Z,51.10
2023-02-09T22:39:37.805Z,43.87
2023-02-09T22:42:05.148Z,38.45
2023-02-09T22:44:33.482Z,41.92
2023-02-09T22:47:00.378Z,34.45
2023-02-09T22:49:27.353Z,40.23
2023-02-09T22:51:55.003Z,32.95
2023-02-09T22:54:22.153Z,35.33
2023-02-09T22:56:49.066Z,33.50
2023-02-09T22:59:16.155Z,30.75
2023-02-09T23:01:43.622Z,32.97
2023-02-09T23:04:10.738Z,35.70
2023-02-09T23:06:37.678Z,31.08
2023-02-09T23:09:07.509Z,30.60
2023-02-09T23:11:35.171Z,31.45
2023-02-09T23:14:10.987Z,28.17
2023-02-09T23:16:40.150Z,33.15
2023-02-09T23:19:08.810Z,33.78
2023-02-09T23:21:39.209Z,51.90
2023-02-09T23:24:06.978Z,39.92
2023-02-09T23:26:34.511Z,43.90
2023-02-09T23:29:04.965Z,49.30
2023-02-09T23:31:32.390Z,41.83
2023-02-09T23:34:00.005Z,46.22
2023-02-09T23:36:29.819Z,51.33
2023-02-09T23:38:59.464Z,57.83
2023-02-09T23:41:27.390Z,53.30
2023-02-09T23:43:54.590Z,47.58
2023-02-09T23:46:25.741Z,42.28
2023-02-09T23:48:54.960Z,50.47
2023-02-09T23:51:33.725Z,47.30
2023-02-09T23:54:03.431Z,49.60
2023-02-09T23:56:36.771Z,42.72
2023-02-09T23:59:06.261Z,44.63
